sensor_id;sensor_type;location;lat;lon;timestamp;P1;durP1;ratioP1;P2;durP2;ratioP2
11443;SDS011;5778;47.856;12.154;2023-09-19T00:00:25;0.80;;;0.80;;
11443;SDS011;5778;47.856;12.154;2023-09-19T00:02:53;1.13;;;0.97;;
11443;SDS011;5778;47.856;12.154;2023-09-19T00:05:20;1.00;;;0.90;;
11443;SDS011;5778;47.856;12.154;2023-09-19T00:07:49;1.00;;;0.90;;
11443;SDS011;5778;47.856;12.154;2023-09-19T00:10:19;0.87;;;0.70;;
11443;SDS011;5778;47.856;12.154;2023-09-19T00:12:47;0.90;;;0.90;;
11443;SDS011;5778;47.856;12.154;2023-09-19T00:15:15;2.40;;;0.90;;
11443;SDS011;5778;47.856;12.154;2023-09-19T00:17:43;0.80;;;0.80;;
11443;SDS011;5778;47.856;12.154;2023-09-19T00:20:10;1.07;;;0.90;;
11443;SDS011;5778;47.856;12.154;2023-09-19T00:22:40;2.10;;;1.00;;
11443;SDS011;5778;47.856;12.154;2023-09-19T00:25:08;1.40;;;1.03;;
11443;SDS011;5778;47.856;12.154;2023-09-19T00:27:37;0.93;;;0.90;;
11443;SDS011;5778;47.856;12.154;2023-09-19T00:30:08;1.10;;;1.00;;
11443;SDS011;5778;47.856;12.154;2023-09-19T00:32:42;2.97;;;1.00;;
11443;SDS011;5778;47.856;12.154;2023-09-19T00:35:09;1.70;;;0.90;;
11443;SDS011;5778;47.856;12.154;2023-09-19T00:37:37;1.10;;;0.90;;
11443;SDS011;5778;47.856;12.154;2023-09-19T00:40:06;0.90;;;0.90;;
11443;SDS011;5778;47.856;12.154;2023-09-19T00:42:37;1.70;;;1.00;;
11443;SDS011;5778;47.856;12.154;2023-09-19T00:45:06;1.50;;;0.90;;
11443;SDS011;5778;47.856;12.154;2023-09-19T00:47:36;2.70;;;0.80;;
11443;SDS011;5778;47.856;12.154;2023-09-19T00:50:05;0.80;;;0.80;;
11443;SDS011;5778;47.856;12.154;2023-09-19T00:52:33;0.83;;;0.83;;
11443;SDS011;5778;47.856;12.154;2023-09-19T00:55:02;3.67;;;1.00;;
11443;SDS011;5778;47.856;12.154;2023-09-19T00:57:29;3.67;;;1.00;;
11443;SDS011;5778;47.856;12.154;2023-09-19T00:59:58;1.17;;;0.97;;
11443;SDS011;5778;47.856;12.154;2023-09-19T01:02:30;1.10;;;1.00;;
11443;SDS011;5778;47.856;12.154;2023-09-19T01:04:58;3.63;;;1.00;;
11443;SDS011;5778;47.856;12.154;2023-09-19T01:07:26;1.97;;;1.00;;
11443;SDS011;5778;47.856;12.154;2023-09-19T01:09:55;1.20;;;1.00;;
11443;SDS011;5778;47.856;12.154;2023-09-19T01:12:30;1.03;;;1.00;;
11443;SDS011;5778;47.856;12.154;2023-09-19T01:15:08;1.93;;;1.00;;
11443;SDS011;5778;47.856;12.154;2023-09-19T01:17:43;2.80;;;1.00;;
11443;SDS011;5778;47.856;12.154;2023-09-19T01:20:17;0.83;;;0.83;;
11443;SDS011;5778;47.856;12.154;2023-09-19T01:22:56;3.00;;;0.97;;
11443;SDS011;5778;47.856;12.154;2023-09-19T01:25:45;2.87;;;1.20;;
11443;SDS011;5778;47.856;12.154;2023-09-19T01:28:31;1.00;;;0.90;;
11443;SDS011;5778;47.856;12.154;2023-09-19T01:31:06;1.63;;;0.87;;
11443;SDS011;5778;47.856;12.154;2023-09-19T01:36:29;1.17;;;0.90;;
11443;SDS011;5778;47.856;12.154;2023-09-19T01:39:00;1.00;;;0.90;;
11443;SDS011;5778;47.856;12.154;2023-09-19T01:41:33;4.00;;;0.80;;
11443;SDS011;5778;47.856;12.154;2023-09-19T01:44:13;1.63;;;1.23;;
11443;SDS011;5778;47.856;12.154;2023-09-19T01:47:08;1.03;;;1.00;;
11443;SDS011;5778;47.856;12.154;2023-09-19T01:49:49;1.27;;;1.00;;
11443;SDS011;5778;47.856;12.154;2023-09-19T01:52:23;1.70;;;1.07;;
11443;SDS011;5778;47.856;12.154;2023-09-19T01:54:54;1.03;;;1.00;;
11443;SDS011;5778;47.856;12.154;2023-09-19T01:57:26;2.10;;;1.00;;
11443;SDS011;5778;47.856;12.154;2023-09-19T01:59:57;0.80;;;0.80;;
11443;SDS011;5778;47.856;12.154;2023-09-19T02:02:39;1.00;;;0.90;;
11443;SDS011;5778;47.856;12.154;2023-09-19T02:05:09;1.27;;;0.97;;
11443;SDS011;5778;47.856;12.154;2023-09-19T02:07:37;1.20;;;0.90;;
11443;SDS011;5778;47.856;12.154;2023-09-19T02:10:06;1.73;;;1.10;;
11443;SDS011;5778;47.856;12.154;2023-09-19T02:12:35;1.20;;;1.10;;
11443;SDS011;5778;47.856;12.154;2023-09-19T02:15:03;1.90;;;1.20;;
11443;SDS011;5778;47.856;12.154;2023-09-19T02:17:32;1.50;;;1.40;;
11443;SDS011;5778;47.856;12.154;2023-09-19T02:20:00;1.30;;;1.20;;
11443;SDS011;5778;47.856;12.154;2023-09-19T02:22:36;3.67;;;1.37;;
11443;SDS011;5778;47.856;12.154;2023-09-19T02:25:04;1.97;;;1.23;;
11443;SDS011;5778;47.856;12.154;2023-09-19T02:27:32;2.30;;;1.20;;
11443;SDS011;5778;47.856;12.154;2023-09-19T02:29:59;1.70;;;1.20;;
11443;SDS011;5778;47.856;12.154;2023-09-19T02:32:29;2.20;;;1.20;;
11443;SDS011;5778;47.856;12.154;2023-09-19T02:35:02;1.43;;;1.23;;
11443;SDS011;5778;47.856;12.154;2023-09-19T02:37:30;1.30;;;1.20;;
11443;SDS011;5778;47.856;12.154;2023-09-19T02:39:58;1.03;;;1.03;;
11443;SDS011;5778;47.856;12.154;2023-09-19T02:42:25;1.20;;;1.07;;
11443;SDS011;5778;47.856;12.154;2023-09-19T02:44:52;1.87;;;1.20;;
11443;SDS011;5778;47.856;12.154;2023-09-19T02:47:20;2.33;;;1.53;;
11443;SDS011;5778;47.856;12.154;2023-09-19T02:49:47;2.40;;;1.57;;
11443;SDS011;5778;47.856;12.154;2023-09-19T02:52:15;1.30;;;1.20;;
11443;SDS011;5778;47.856;12.154;2023-09-19T02:54:42;3.03;;;1.53;;
11443;SDS011;5778;47.856;12.154;2023-09-19T02:57:10;1.87;;;1.50;;
11443;SDS011;5778;47.856;12.154;2023-09-19T02:59:39;1.97;;;1.50;;
11443;SDS011;5778;47.856;12.154;2023-09-19T03:02:07;1.63;;;1.40;;
11443;SDS011;5778;47.856;12.154;2023-09-19T03:04:35;2.10;;;1.43;;
11443;SDS011;5778;47.856;12.154;2023-09-19T03:07:02;2.30;;;1.50;;
11443;SDS011;5778;47.856;12.154;2023-09-19T03:09:31;1.60;;;1.50;;
11443;SDS011;5778;47.856;12.154;2023-09-19T03:11:58;2.50;;;1.47;;
11443;SDS011;5778;47.856;12.154;2023-09-19T03:14:26;3.27;;;1.70;;
11443;SDS011;5778;47.856;12.154;2023-09-19T03:16:57;2.27;;;1.70;;
11443;SDS011;5778;47.856;12.154;2023-09-19T03:19:25;2.13;;;1.60;;
11443;SDS011;5778;47.856;12.154;2023-09-19T03:21:53;1.83;;;1.73;;
11443;SDS011;5778;47.856;12.154;2023-09-19T03:24:20;3.27;;;1.70;;
11443;SDS011;5778;47.856;12.154;2023-09-19T03:26:50;1.83;;;1.70;;
11443;SDS011;5778;47.856;12.154;2023-09-19T03:29:18;2.37;;;2.10;;
11443;SDS011;5778;47.856;12.154;2023-09-19T03:31:45;2.40;;;1.70;;
11443;SDS011;5778;47.856;12.154;2023-09-19T03:34:12;2.30;;;1.63;;
11443;SDS011;5778;47.856;12.154;2023-09-19T03:36:39;2.47;;;1.77;;
11443;SDS011;5778;47.856;12.154;2023-09-19T03:39:08;1.93;;;1.70;;
11443;SDS011;5778;47.856;12.154;2023-09-19T03:41:36;1.70;;;1.60;;
11443;SDS011;5778;47.856;12.154;2023-09-19T03:44:05;2.00;;;1.70;;
11443;SDS011;5778;47.856;12.154;2023-09-19T03:46:33;1.70;;;1.60;;
11443;SDS011;5778;47.856;12.154;2023-09-19T03:49:02;2.87;;;1.53;;
11443;SDS011;5778;47.856;12.154;2023-09-19T03:51:29;1.83;;;1.70;;
11443;SDS011;5778;47.856;12.154;2023-09-19T03:53:56;3.07;;;1.50;;
11443;SDS011;5778;47.856;12.154;2023-09-19T03:56:23;1.60;;;1.50;;
11443;SDS011;5778;47.856;12.154;2023-09-19T03:58:50;3.77;;;1.70;;
11443;SDS011;5778;47.856;12.154;2023-09-19T04:01:18;2.23;;;1.43;;
11443;SDS011;5778;47.856;12.154;2023-09-19T04:03:46;2.07;;;1.50;;
11443;SDS011;5778;47.856;12.154;2023-09-19T04:06:14;3.03;;;1.47;;
11443;SDS011;5778;47.856;12.154;2023-09-19T04:08:41;1.70;;;1.60;;
11443;SDS011;5778;47.856;12.154;2023-09-19T04:11:09;1.60;;;1.50;;
11443;SDS011;5778;47.856;12.154;2023-09-19T04:13:36;1.67;;;1.50;;
11443;SDS011;5778;47.856;12.154;2023-09-19T04:16:03;2.43;;;1.50;;
11443;SDS011;5778;47.856;12.154;2023-09-19T04:18:33;1.83;;;1.33;;
11443;SDS011;5778;47.856;12.154;2023-09-19T04:21:03;3.33;;;1.83;;
11443;SDS011;5778;47.856;12.154;2023-09-19T04:23:31;1.50;;;1.40;;
11443;SDS011;5778;47.856;12.154;2023-09-19T04:25:58;2.57;;;2.00;;
11443;SDS011;5778;47.856;12.154;2023-09-19T04:28:25;4.37;;;1.70;;
11443;SDS011;5778;47.856;12.154;2023-09-19T04:30:52;2.23;;;1.80;;
11443;SDS011;5778;47.856;12.154;2023-09-19T04:33:20;2.30;;;1.60;;
11443;SDS011;5778;47.856;12.154;2023-09-19T04:35:50;2.07;;;1.87;;
11443;SDS011;5778;47.856;12.154;2023-09-19T04:38:17;2.87;;;1.90;;
11443;SDS011;5778;47.856;12.154;2023-09-19T04:40:44;3.87;;;2.00;;
11443;SDS011;5778;47.856;12.154;2023-09-19T04:43:11;2.33;;;1.73;;
11443;SDS011;5778;47.856;12.154;2023-09-19T04:45:38;4.27;;;1.63;;
11443;SDS011;5778;47.856;12.154;2023-09-19T04:48:06;3.60;;;2.07;;
11443;SDS011;5778;47.856;12.154;2023-09-19T04:50:34;3.50;;;1.90;;
11443;SDS011;5778;47.856;12.154;2023-09-19T04:53:03;1.90;;;1.67;;
11443;SDS011;5778;47.856;12.154;2023-09-19T04:55:31;3.20;;;2.00;;
11443;SDS011;5778;47.856;12.154;2023-09-19T04:57:58;2.17;;;1.90;;
11443;SDS011;5778;47.856;12.154;2023-09-19T05:00:25;2.33;;;1.90;;
11443;SDS011;5778;47.856;12.154;2023-09-19T05:02:55;2.10;;;1.90;;
11443;SDS011;5778;47.856;12.154;2023-09-19T05:05:22;4.43;;;1.70;;
11443;SDS011;5778;47.856;12.154;2023-09-19T05:07:51;2.50;;;2.10;;
11443;SDS011;5778;47.856;12.154;2023-09-19T05:10:21;2.10;;;2.00;;
11443;SDS011;5778;47.856;12.154;2023-09-19T05:12:48;2.80;;;2.00;;
11443;SDS011;5778;47.856;12.154;2023-09-19T05:15:17;2.93;;;2.00;;
11443;SDS011;5778;47.856;12.154;2023-09-19T05:17:47;2.30;;;1.80;;
11443;SDS011;5778;47.856;12.154;2023-09-19T05:20:15;2.10;;;1.60;;
11443;SDS011;5778;47.856;12.154;2023-09-19T05:22:43;2.43;;;2.23;;
11443;SDS011;5778;47.856;12.154;2023-09-19T05:25:11;3.07;;;2.00;;
11443;SDS011;5778;47.856;12.154;2023-09-19T05:27:42;2.43;;;1.70;;
11443;SDS011;5778;47.856;12.154;2023-09-19T05:30:10;1.87;;;1.70;;
11443;SDS011;5778;47.856;12.154;2023-09-19T05:32:39;2.03;;;1.50;;
11443;SDS011;5778;47.856;12.154;2023-09-19T05:35:06;2.70;;;1.67;;
11443;SDS011;5778;47.856;12.154;2023-09-19T05:37:34;2.37;;;1.80;;
11443;SDS011;5778;47.856;12.154;2023-09-19T05:40:02;1.97;;;1.70;;
11443;SDS011;5778;47.856;12.154;2023-09-19T05:42:34;2.13;;;1.60;;
11443;SDS011;5778;47.856;12.154;2023-09-19T05:45:03;2.60;;;1.57;;
11443;SDS011;5778;47.856;12.154;2023-09-19T05:47:31;3.43;;;1.67;;
11443;SDS011;5778;47.856;12.154;2023-09-19T05:49:58;2.53;;;1.63;;
11443;SDS011;5778;47.856;12.154;2023-09-19T05:52:25;1.67;;;1.50;;
11443;SDS011;5778;47.856;12.154;2023-09-19T05:54:52;3.30;;;1.67;;
11443;SDS011;5778;47.856;12.154;2023-09-19T05:57:19;2.53;;;1.50;;
11443;SDS011;5778;47.856;12.154;2023-09-19T05:59:47;3.40;;;1.40;;
11443;SDS011;5778;47.856;12.154;2023-09-19T06:02:17;2.47;;;1.50;;
11443;SDS011;5778;47.856;12.154;2023-09-19T06:04:45;2.53;;;1.60;;
11443;SDS011;5778;47.856;12.154;2023-09-19T06:07:12;3.57;;;1.70;;
11443;SDS011;5778;47.856;12.154;2023-09-19T06:09:39;3.70;;;1.80;;
11443;SDS011;5778;47.856;12.154;2023-09-19T06:12:06;2.23;;;1.33;;
11443;SDS011;5778;47.856;12.154;2023-09-19T06:14:33;4.13;;;1.80;;
11443;SDS011;5778;47.856;12.154;2023-09-19T06:17:00;1.50;;;1.40;;
11443;SDS011;5778;47.856;12.154;2023-09-19T06:19:28;1.53;;;1.43;;
11443;SDS011;5778;47.856;12.154;2023-09-19T06:21:55;2.87;;;1.67;;
11443;SDS011;5778;47.856;12.154;2023-09-19T06:24:24;2.60;;;1.40;;
11443;SDS011;5778;47.856;12.154;2023-09-19T06:26:51;2.93;;;1.43;;
11443;SDS011;5778;47.856;12.154;2023-09-19T06:29:19;2.83;;;1.80;;
11443;SDS011;5778;47.856;12.154;2023-09-19T06:31:47;3.23;;;1.40;;
11443;SDS011;5778;47.856;12.154;2023-09-19T06:34:14;1.87;;;1.50;;
11443;SDS011;5778;47.856;12.154;2023-09-19T06:36:44;5.43;;;1.67;;
11443;SDS011;5778;47.856;12.154;2023-09-19T06:39:11;2.67;;;1.40;;
11443;SDS011;5778;47.856;12.154;2023-09-19T06:41:38;2.23;;;1.50;;
11443;SDS011;5778;47.856;12.154;2023-09-19T06:44:09;1.33;;;1.23;;
11443;SDS011;5778;47.856;12.154;2023-09-19T06:46:36;3.10;;;1.50;;
11443;SDS011;5778;47.856;12.154;2023-09-19T06:49:04;1.93;;;1.60;;
11443;SDS011;5778;47.856;12.154;2023-09-19T06:51:31;2.10;;;1.70;;
11443;SDS011;5778;47.856;12.154;2023-09-19T06:54:01;1.93;;;1.83;;
11443;SDS011;5778;47.856;12.154;2023-09-19T06:56:30;1.70;;;1.60;;
11443;SDS011;5778;47.856;12.154;2023-09-19T06:58:57;1.53;;;1.43;;
11443;SDS011;5778;47.856;12.154;2023-09-19T07:01:24;2.00;;;1.73;;
11443;SDS011;5778;47.856;12.154;2023-09-19T07:03:51;2.00;;;1.80;;
11443;SDS011;5778;47.856;12.154;2023-09-19T07:06:18;2.93;;;1.50;;
11443;SDS011;5778;47.856;12.154;2023-09-19T07:08:45;2.27;;;1.70;;
11443;SDS011;5778;47.856;12.154;2023-09-19T07:11:14;1.97;;;1.40;;
11443;SDS011;5778;47.856;12.154;2023-09-19T07:13:40;3.53;;;1.60;;
11443;SDS011;5778;47.856;12.154;2023-09-19T07:16:08;1.57;;;1.33;;
11443;SDS011;5778;47.856;12.154;2023-09-19T07:18:52;3.53;;;1.47;;
11443;SDS011;5778;47.856;12.154;2023-09-19T07:21:20;3.07;;;1.80;;
11443;SDS011;5778;47.856;12.154;2023-09-19T07:23:47;1.70;;;1.60;;
11443;SDS011;5778;47.856;12.154;2023-09-19T07:26:16;2.20;;;1.50;;
11443;SDS011;5778;47.856;12.154;2023-09-19T07:28:43;2.57;;;1.60;;
11443;SDS011;5778;47.856;12.154;2023-09-19T07:31:10;2.10;;;1.70;;
11443;SDS011;5778;47.856;12.154;2023-09-19T07:33:39;2.13;;;1.40;;
11443;SDS011;5778;47.856;12.154;2023-09-19T07:36:09;1.90;;;1.50;;
11443;SDS011;5778;47.856;12.154;2023-09-19T07:38:38;1.53;;;1.43;;
11443;SDS011;5778;47.856;12.154;2023-09-19T07:41:06;3.83;;;1.40;;
11443;SDS011;5778;47.856;12.154;2023-09-19T07:43:36;2.73;;;1.43;;
11443;SDS011;5778;47.856;12.154;2023-09-19T07:46:04;1.50;;;1.40;;
11443;SDS011;5778;47.856;12.154;2023-09-19T07:48:34;1.43;;;1.30;;
11443;SDS011;5778;47.856;12.154;2023-09-19T07:51:03;1.90;;;1.40;;
11443;SDS011;5778;47.856;12.154;2023-09-19T07:53:31;1.80;;;1.40;;
11443;SDS011;5778;47.856;12.154;2023-09-19T07:56:03;1.20;;;1.10;;
11443;SDS011;5778;47.856;12.154;2023-09-19T07:58:31;2.57;;;1.20;;
11443;SDS011;5778;47.856;12.154;2023-09-19T08:01:03;2.50;;;0.93;;
11443;SDS011;5778;47.856;12.154;2023-09-19T08:03:31;1.33;;;1.20;;
11443;SDS011;5778;47.856;12.154;2023-09-19T08:05:59;1.90;;;1.03;;
11443;SDS011;5778;47.856;12.154;2023-09-19T08:08:26;1.87;;;1.30;;
11443;SDS011;5778;47.856;12.154;2023-09-19T08:10:53;1.07;;;1.00;;
11443;SDS011;5778;47.856;12.154;2023-09-19T08:13:21;1.57;;;1.00;;
11443;SDS011;5778;47.856;12.154;2023-09-19T08:15:49;2.00;;;1.13;;
11443;SDS011;5778;47.856;12.154;2023-09-19T08:18:20;1.67;;;1.17;;
11443;SDS011;5778;47.856;12.154;2023-09-19T08:20:51;1.30;;;1.10;;
11443;SDS011;5778;47.856;12.154;2023-09-19T08:23:19;1.10;;;1.00;;
11443;SDS011;5778;47.856;12.154;2023-09-19T08:25:46;1.30;;;1.20;;
11443;SDS011;5778;47.856;12.154;2023-09-19T08:28:13;0.80;;;0.80;;
11443;SDS011;5778;47.856;12.154;2023-09-19T08:30:44;0.80;;;0.80;;
11443;SDS011;5778;47.856;12.154;2023-09-19T08:33:11;2.23;;;1.00;;
11443;SDS011;5778;47.856;12.154;2023-09-19T08:35:42;1.57;;;0.70;;
11443;SDS011;5778;47.856;12.154;2023-09-19T08:38:10;2.47;;;1.00;;
11443;SDS011;5778;47.856;12.154;2023-09-19T08:40:39;0.97;;;0.83;;
11443;SDS011;5778;47.856;12.154;2023-09-19T08:43:07;0.70;;;0.70;;
11443;SDS011;5778;47.856;12.154;2023-09-19T08:45:34;2.63;;;1.00;;
11443;SDS011;5778;47.856;12.154;2023-09-19T08:48:06;1.23;;;0.93;;
11443;SDS011;5778;47.856;12.154;2023-09-19T08:50:49;1.23;;;0.80;;
11443;SDS011;5778;47.856;12.154;2023-09-19T08:53:20;1.70;;;0.77;;
11443;SDS011;5778;47.856;12.154;2023-09-19T08:55:53;1.00;;;1.00;;
11443;SDS011;5778;47.856;12.154;2023-09-19T08:58:21;0.90;;;0.90;;
11443;SDS011;5778;47.856;12.154;2023-09-19T09:00:54;1.20;;;0.77;;
11443;SDS011;5778;47.856;12.154;2023-09-19T09:03:26;1.03;;;0.90;;
11443;SDS011;5778;47.856;12.154;2023-09-19T09:06:00;1.50;;;0.70;;
11443;SDS011;5778;47.856;12.154;2023-09-19T09:08:29;0.90;;;0.90;;
11443;SDS011;5778;47.856;12.154;2023-09-19T09:10:57;0.87;;;0.87;;
11443;SDS011;5778;47.856;12.154;2023-09-19T09:13:25;1.37;;;1.10;;
11443;SDS011;5778;47.856;12.154;2023-09-19T09:15:53;1.10;;;1.00;;
11443;SDS011;5778;47.856;12.154;2023-09-19T09:18:20;1.03;;;0.60;;
11443;SDS011;5778;47.856;12.154;2023-09-19T09:20:47;0.60;;;0.60;;
11443;SDS011;5778;47.856;12.154;2023-09-19T09:23:16;0.97;;;0.90;;
11443;SDS011;5778;47.856;12.154;2023-09-19T09:25:47;1.90;;;0.90;;
11443;SDS011;5778;47.856;12.154;2023-09-19T09:28:19;0.80;;;0.80;;
11443;SDS011;5778;47.856;12.154;2023-09-19T09:30:46;1.33;;;0.80;;
11443;SDS011;5778;47.856;12.154;2023-09-19T09:33:14;0.90;;;0.90;;
11443;SDS011;5778;47.856;12.154;2023-09-19T09:35:51;0.80;;;0.80;;
11443;SDS011;5778;47.856;12.154;2023-09-19T09:38:23;1.17;;;0.90;;
11443;SDS011;5778;47.856;12.154;2023-09-19T09:40:53;1.77;;;0.90;;
11443;SDS011;5778;47.856;12.154;2023-09-19T09:43:27;0.90;;;0.80;;
11443;SDS011;5778;47.856;12.154;2023-09-19T09:46:09;0.67;;;0.67;;
11443;SDS011;5778;47.856;12.154;2023-09-19T09:48:58;1.10;;;1.00;;
11443;SDS011;5778;47.856;12.154;2023-09-19T09:51:44;2.20;;;0.87;;
11443;SDS011;5778;47.856;12.154;2023-09-19T09:54:24;1.30;;;0.70;;
11443;SDS011;5778;47.856;12.154;2023-09-19T09:57:02;0.80;;;0.80;;
11443;SDS011;5778;47.856;12.154;2023-09-19T09:59:48;1.10;;;0.77;;
11443;SDS011;5778;47.856;12.154;2023-09-19T10:02:19;0.90;;;0.80;;
11443;SDS011;5778;47.856;12.154;2023-09-19T10:04:51;1.00;;;0.90;;
11443;SDS011;5778;47.856;12.154;2023-09-19T10:07:27;2.07;;;0.63;;
11443;SDS011;5778;47.856;12.154;2023-09-19T10:10:00;1.00;;;0.70;;
11443;SDS011;5778;47.856;12.154;2023-09-19T10:12:36;2.00;;;0.80;;
11443;SDS011;5778;47.856;12.154;2023-09-19T10:15:07;0.60;;;0.60;;
11443;SDS011;5778;47.856;12.154;2023-09-19T10:17:37;1.43;;;0.70;;
11443;SDS011;5778;47.856;12.154;2023-09-19T10:20:10;0.80;;;0.63;;
11443;SDS011;5778;47.856;12.154;2023-09-19T10:22:58;1.00;;;0.73;;
11443;SDS011;5778;47.856;12.154;2023-09-19T10:25:28;0.67;;;0.67;;
11443;SDS011;5778;47.856;12.154;2023-09-19T10:27:56;0.87;;;0.70;;
11443;SDS011;5778;47.856;12.154;2023-09-19T10:30:28;0.53;;;0.53;;
11443;SDS011;5778;47.856;12.154;2023-09-19T10:32:59;0.77;;;0.60;;
11443;SDS011;5778;47.856;12.154;2023-09-19T10:35:28;1.13;;;0.80;;
11443;SDS011;5778;47.856;12.154;2023-09-19T10:37:57;0.80;;;0.80;;
11443;SDS011;5778;47.856;12.154;2023-09-19T10:40:28;0.53;;;0.53;;
11443;SDS011;5778;47.856;12.154;2023-09-19T10:43:01;1.70;;;0.70;;
11443;SDS011;5778;47.856;12.154;2023-09-19T10:45:30;1.27;;;0.70;;
11443;SDS011;5778;47.856;12.154;2023-09-19T10:47:58;0.73;;;0.70;;
11443;SDS011;5778;47.856;12.154;2023-09-19T10:50:27;0.60;;;0.60;;
11443;SDS011;5778;47.856;12.154;2023-09-19T10:52:59;1.43;;;0.50;;
11443;SDS011;5778;47.856;12.154;2023-09-19T10:55:33;0.50;;;0.50;;
11443;SDS011;5778;47.856;12.154;2023-09-19T10:58:02;0.50;;;0.50;;
11443;SDS011;5778;47.856;12.154;2023-09-19T11:00:52;0.53;;;0.50;;
11443;SDS011;5778;47.856;12.154;2023-09-19T11:03:20;0.63;;;0.63;;
11443;SDS011;5778;47.856;12.154;2023-09-19T11:06:08;0.73;;;0.60;;
11443;SDS011;5778;47.856;12.154;2023-09-19T11:08:58;1.90;;;0.80;;
11443;SDS011;5778;47.856;12.154;2023-09-19T11:14:29;1.30;;;0.70;;
11443;SDS011;5778;47.856;12.154;2023-09-19T11:23:17;1.10;;;0.50;;
11443;SDS011;5778;47.856;12.154;2023-09-19T11:25:48;0.83;;;0.43;;
11443;SDS011;5778;47.856;12.154;2023-09-19T11:34:51;1.93;;;0.60;;
11443;SDS011;5778;47.856;12.154;2023-09-19T11:40:36;1.57;;;0.70;;
11443;SDS011;5778;47.856;12.154;2023-09-19T11:46:06;0.63;;;0.60;;
11443;SDS011;5778;47.856;12.154;2023-09-19T11:48:40;0.57;;;0.57;;
11443;SDS011;5778;47.856;12.154;2023-09-19T11:51:10;2.03;;;0.70;;
11443;SDS011;5778;47.856;12.154;2023-09-19T11:53:45;0.77;;;0.70;;
11443;SDS011;5778;47.856;12.154;2023-09-19T11:56:14;0.70;;;0.70;;
11443;SDS011;5778;47.856;12.154;2023-09-19T11:58:43;1.90;;;0.80;;
11443;SDS011;5778;47.856;12.154;2023-09-19T12:01:21;1.03;;;0.70;;
11443;SDS011;5778;47.856;12.154;2023-09-19T12:03:52;0.70;;;0.70;;
11443;SDS011;5778;47.856;12.154;2023-09-19T12:06:22;1.60;;;0.80;;
11443;SDS011;5778;47.856;12.154;2023-09-19T12:08:51;0.93;;;0.70;;
11443;SDS011;5778;47.856;12.154;2023-09-19T12:11:19;0.80;;;0.70;;
11443;SDS011;5778;47.856;12.154;2023-09-19T12:13:48;1.27;;;0.63;;
11443;SDS011;5778;47.856;12.154;2023-09-19T12:16:17;0.73;;;0.70;;
11443;SDS011;5778;47.856;12.154;2023-09-19T12:18:47;0.80;;;0.80;;
11443;SDS011;5778;47.856;12.154;2023-09-19T12:21:28;0.70;;;0.70;;
11443;SDS011;5778;47.856;12.154;2023-09-19T12:24:03;1.23;;;0.70;;
11443;SDS011;5778;47.856;12.154;2023-09-19T12:26:30;0.80;;;0.80;;
11443;SDS011;5778;47.856;12.154;2023-09-19T12:29:04;1.07;;;0.90;;
11443;SDS011;5778;47.856;12.154;2023-09-19T12:31:33;1.20;;;0.80;;
11443;SDS011;5778;47.856;12.154;2023-09-19T12:34:02;2.03;;;0.83;;
11443;SDS011;5778;47.856;12.154;2023-09-19T12:36:29;0.93;;;0.70;;
11443;SDS011;5778;47.856;12.154;2023-09-19T12:38:59;0.80;;;0.80;;
11443;SDS011;5778;47.856;12.154;2023-09-19T12:41:33;1.73;;;0.83;;
11443;SDS011;5778;47.856;12.154;2023-09-19T12:44:00;1.37;;;0.60;;
11443;SDS011;5778;47.856;12.154;2023-09-19T12:46:30;1.70;;;0.70;;
11443;SDS011;5778;47.856;12.154;2023-09-19T12:49:17;0.70;;;0.70;;
11443;SDS011;5778;47.856;12.154;2023-09-19T12:51:45;1.80;;;0.80;;
11443;SDS011;5778;47.856;12.154;2023-09-19T12:54:12;0.50;;;0.50;;
11443;SDS011;5778;47.856;12.154;2023-09-19T12:56:41;0.77;;;0.77;;
11443;SDS011;5778;47.856;12.154;2023-09-19T12:59:11;0.60;;;0.60;;
11443;SDS011;5778;47.856;12.154;2023-09-19T13:01:40;1.03;;;0.80;;
11443;SDS011;5778;47.856;12.154;2023-09-19T13:04:15;1.00;;;0.67;;
11443;SDS011;5778;47.856;12.154;2023-09-19T13:06:51;0.70;;;0.70;;
11443;SDS011;5778;47.856;12.154;2023-09-19T13:09:20;1.10;;;1.00;;
11443;SDS011;5778;47.856;12.154;2023-09-19T13:11:50;0.87;;;0.80;;
11443;SDS011;5778;47.856;12.154;2023-09-19T13:14:19;1.00;;;0.77;;
11443;SDS011;5778;47.856;12.154;2023-09-19T13:17:01;1.17;;;0.70;;
11443;SDS011;5778;47.856;12.154;2023-09-19T13:19:41;1.03;;;0.60;;
11443;SDS011;5778;47.856;12.154;2023-09-19T13:25:03;0.63;;;0.63;;
11443;SDS011;5778;47.856;12.154;2023-09-19T13:27:32;1.00;;;0.50;;
11443;SDS011;5778;47.856;12.154;2023-09-19T13:29:59;0.73;;;0.53;;
11443;SDS011;5778;47.856;12.154;2023-09-19T13:32:26;0.87;;;0.40;;
11443;SDS011;5778;47.856;12.154;2023-09-19T13:34:55;0.60;;;0.60;;
11443;SDS011;5778;47.856;12.154;2023-09-19T13:37:23;0.60;;;0.50;;
11443;SDS011;5778;47.856;12.154;2023-09-19T13:39:51;0.60;;;0.60;;
11443;SDS011;5778;47.856;12.154;2023-09-19T13:42:18;0.60;;;0.60;;
11443;SDS011;5778;47.856;12.154;2023-09-19T13:44:46;1.40;;;0.70;;
11443;SDS011;5778;47.856;12.154;2023-09-19T13:47:13;0.40;;;0.40;;
11443;SDS011;5778;47.856;12.154;2023-09-19T13:49:41;0.97;;;0.70;;
11443;SDS011;5778;47.856;12.154;2023-09-19T13:52:11;1.23;;;0.70;;
11443;SDS011;5778;47.856;12.154;2023-09-19T13:54:38;2.97;;;0.40;;
11443;SDS011;5778;47.856;12.154;2023-09-19T13:57:05;1.77;;;0.60;;
11443;SDS011;5778;47.856;12.154;2023-09-19T13:59:32;0.60;;;0.60;;
11443;SDS011;5778;47.856;12.154;2023-09-19T14:01:59;0.57;;;0.57;;
11443;SDS011;5778;47.856;12.154;2023-09-19T14:04:27;0.47;;;0.47;;
11443;SDS011;5778;47.856;12.154;2023-09-19T14:06:56;0.90;;;0.60;;
11443;SDS011;5778;47.856;12.154;2023-09-19T14:09:25;0.57;;;0.57;;
11443;SDS011;5778;47.856;12.154;2023-09-19T14:11:52;0.80;;;0.53;;
11443;SDS011;5778;47.856;12.154;2023-09-19T14:14:19;0.40;;;0.40;;
11443;SDS011;5778;47.856;12.154;2023-09-19T14:16:47;1.30;;;0.60;;
11443;SDS011;5778;47.856;12.154;2023-09-19T14:19:14;0.50;;;0.50;;
11443;SDS011;5778;47.856;12.154;2023-09-19T14:21:41;0.53;;;0.53;;
11443;SDS011;5778;47.856;12.154;2023-09-19T14:24:08;1.40;;;0.60;;
11443;SDS011;5778;47.856;12.154;2023-09-19T14:26:39;1.03;;;0.60;;
11443;SDS011;5778;47.856;12.154;2023-09-19T14:29:06;1.03;;;0.50;;
11443;SDS011;5778;47.856;12.154;2023-09-19T14:31:36;0.70;;;0.70;;
11443;SDS011;5778;47.856;12.154;2023-09-19T14:34:05;1.23;;;0.60;;
11443;SDS011;5778;47.856;12.154;2023-09-19T14:36:35;0.40;;;0.40;;
11443;SDS011;5778;47.856;12.154;2023-09-19T14:39:04;0.60;;;0.53;;
11443;SDS011;5778;47.856;12.154;2023-09-19T14:41:31;0.87;;;0.50;;
11443;SDS011;5778;47.856;12.154;2023-09-19T14:44:01;0.50;;;0.50;;
11443;SDS011;5778;47.856;12.154;2023-09-19T14:46:30;0.50;;;0.50;;
11443;SDS011;5778;47.856;12.154;2023-09-19T14:48:57;0.60;;;0.60;;
11443;SDS011;5778;47.856;12.154;2023-09-19T14:51:29;0.70;;;0.70;;
11443;SDS011;5778;47.856;12.154;2023-09-19T14:53:56;0.70;;;0.70;;
11443;SDS011;5778;47.856;12.154;2023-09-19T14:56:23;0.67;;;0.67;;
11443;SDS011;5778;47.856;12.154;2023-09-19T14:58:50;0.73;;;0.60;;
11443;SDS011;5778;47.856;12.154;2023-09-19T15:01:19;0.60;;;0.60;;
11443;SDS011;5778;47.856;12.154;2023-09-19T15:03:47;1.97;;;0.60;;
11443;SDS011;5778;47.856;12.154;2023-09-19T15:06:15;0.70;;;0.70;;
11443;SDS011;5778;47.856;12.154;2023-09-19T15:08:46;0.73;;;0.67;;
11443;SDS011;5778;47.856;12.154;2023-09-19T15:11:15;1.73;;;0.77;;
11443;SDS011;5778;47.856;12.154;2023-09-19T15:13:42;1.77;;;0.70;;
11443;SDS011;5778;47.856;12.154;2023-09-19T15:16:10;0.90;;;0.60;;
11443;SDS011;5778;47.856;12.154;2023-09-19T15:18:40;0.60;;;0.60;;
11443;SDS011;5778;47.856;12.154;2023-09-19T15:21:09;1.60;;;0.60;;
11443;SDS011;5778;47.856;12.154;2023-09-19T15:23:37;3.23;;;0.70;;
11443;SDS011;5778;47.856;12.154;2023-09-19T15:26:06;0.63;;;0.60;;
11443;SDS011;5778;47.856;12.154;2023-09-19T15:28:34;2.73;;;0.80;;
11443;SDS011;5778;47.856;12.154;2023-09-19T15:31:02;0.67;;;0.60;;